sensor_id;sensor_type;location;lat;lon;timestamp;pressure;altitude;pressure_sealevel;temperature;humidity
9257;BME280;4665;51.368;6.782;2023-06-26T00:00:44;100947.69;;;21.36;100.00
9257;BME280;4665;51.368;6.782;2023-06-26T00:03:10;100939.25;;;21.26;100.00
9257;BME280;4665;51.368;6.782;2023-06-26T00:05:39;100949.47;;;21.24;100.00
9257;BME280;4665;51.368;6.782;2023-06-26T00:08:04;100943.91;;;21.19;100.00
9257;BME280;4665;51.368;6.782;2023-06-26T00:10:31;100944.31;;;21.16;100.00
9257;BME280;4665;51.368;6.782;2023-06-26T00:12:56;100943.91;;;21.19;100.00
9257;BME280;4665;51.368;6.782;2023-06-26T00:15:21;100941.78;;;21.21;100.00
9257;BME280;4665;51.368;6.782;2023-06-26T00:17:47;100936.97;;;21.23;100.00
9257;BME280;4665;51.368;6.782;2023-06-26T00:20:12;100943.00;;;21.25;100.00
9257;BME280;4665;51.368;6.782;2023-06-26T00:22:42;100943.44;;;21.22;100.00
9257;BME280;4665;51.368;6.782;2023-06-26T00:25:07;100944.94;;;21.18;100.00
9257;BME280;4665;51.368;6.782;2023-06-26T00:27:33;100950.34;;;21.18;100.00
9257;BME280;4665;51.368;6.782;2023-06-26T00:29:58;100946.63;;;21.19;100.00
9257;BME280;4665;51.368;6.782;2023-06-26T00:32:24;100943.66;;;21.20;100.00
9257;BME280;4665;51.368;6.782;2023-06-26T00:34:49;100943.91;;;21.19;100.00
9257;BME280;4665;51.368;6.782;2023-06-26T00:37:15;100947.84;;;21.16;100.00
9257;BME280;4665;51.368;6.782;2023-06-26T00:39:41;100946.41;;;21.14;100.00
9257;BME280;4665;51.368;6.782;2023-06-26T00:42:06;100944.16;;;21.11;100.00
9257;BME280;4665;51.368;6.782;2023-06-26T00:44:32;100940.03;;;21.08;100.00
9257;BME280;4665;51.368;6.782;2023-06-26T00:46:57;100942.56;;;21.03;100.00
9257;BME280;4665;51.368;6.782;2023-06-26T00:49:25;100942.56;;;21.03;100.00
9257;BME280;4665;51.368;6.782;2023-06-26T00:51:51;100943.84;;;21.00;100.00
9257;BME280;4665;51.368;6.782;2023-06-26T00:54:17;100936.75;;;20.99;100.00
9257;BME280;4665;51.368;6.782;2023-06-26T00:56:46;100939.91;;;20.96;100.00
9257;BME280;4665;51.368;6.782;2023-06-26T00:59:12;100942.00;;;20.94;100.00
9257;BME280;4665;51.368;6.782;2023-06-26T01:01:38;100942.44;;;20.91;100.00
9257;BME280;4665;51.368;6.782;2023-06-26T01:04:03;100929.38;;;20.81;100.00
9257;BME280;4665;51.368;6.782;2023-06-26T01:06:32;100934.56;;;20.83;100.00
9257;BME280;4665;51.368;6.782;2023-06-26T01:09:02;100929.38;;;20.81;100.00
9257;BME280;4665;51.368;6.782;2023-06-26T01:11:28;100924.41;;;20.78;100.00
9257;BME280;4665;51.368;6.782;2023-06-26T01:13:57;100919.81;;;20.79;100.00
9257;BME280;4665;51.368;6.782;2023-06-26T01:16:25;100926.50;;;20.76;100.00
9257;BME280;4665;51.368;6.782;2023-06-26T01:18:51;100920.69;;;20.73;100.00
9257;BME280;4665;51.368;6.782;2023-06-26T01:21:17;100921.13;;;20.70;100.00
9257;BME280;4665;51.368;6.782;2023-06-26T01:23:58;100913.22;;;20.68;100.00
9257;BME280;4665;51.368;6.782;2023-06-26T01:26:30;100914.06;;;20.69;100.00
9257;BME280;4665;51.368;6.782;2023-06-26T01:29:02;100923.22;;;20.68;100.00
9257;BME280;4665;51.368;6.782;2023-06-26T01:31:30;100920.94;;;20.65;100.00
9257;BME280;4665;51.368;6.782;2023-06-26T01:33:58;100909.94;;;20.59;100.00
9257;BME280;4665;51.368;6.782;2023-06-26T01:36:24;100911.38;;;20.55;100.00
9257;BME280;4665;51.368;6.782;2023-06-26T01:38:50;100900.81;;;20.54;100.00
9257;BME280;4665;51.368;6.782;2023-06-26T01:41:17;100905.81;;;20.50;100.00
9257;BME280;4665;51.368;6.782;2023-06-26T01:47:03;100906.88;;;20.49;100.00
9257;BME280;4665;51.368;6.782;2023-06-26T01:52:14;100910.06;;;20.33;100.00
9257;BME280;4665;51.368;6.782;2023-06-26T01:54:48;100910.50;;;20.30;100.00
9257;BME280;4665;51.368;6.782;2023-06-26T01:57:17;100909.91;;;20.21;100.00
9257;BME280;4665;51.368;6.782;2023-06-26T01:59:45;100905.13;;;20.16;100.00
9257;BME280;4665;51.368;6.782;2023-06-26T02:02:11;100906.19;;;20.15;100.00
9257;BME280;4665;51.368;6.782;2023-06-26T02:04:37;100923.03;;;20.17;100.00
9257;BME280;4665;51.368;6.782;2023-06-26T02:07:03;100921.81;;;20.13;100.00
9257;BME280;4665;51.368;6.782;2023-06-26T02:09:29;100918.91;;;20.08;100.00
9257;BME280;4665;51.368;6.782;2023-06-26T02:11:54;100922.88;;;20.06;100.00
9257;BME280;4665;51.368;6.782;2023-06-26T02:14:20;100922.47;;;20.02;100.00
9257;BME280;4665;51.368;6.782;2023-06-26T02:16:45;100927.66;;;20.04;100.00
9257;BME280;4665;51.368;6.782;2023-06-26T02:19:10;100923.09;;;20.04;100.00
9257;BME280;4665;51.368;6.782;2023-06-26T02:21:36;100926.22;;;20.01;100.00
9257;BME280;4665;51.368;6.782;2023-06-26T02:24:04;100935.97;;;20.02;100.00
9257;BME280;4665;51.368;6.782;2023-06-26T02:26:30;100932.47;;;20.02;100.00
9257;BME280;4665;51.368;6.782;2023-06-26T02:28:55;100929.34;;;19.98;100.00
9257;BME280;4665;51.368;6.782;2023-06-26T02:31:20;100920.81;;;20.01;100.00
9257;BME280;4665;51.368;6.782;2023-06-26T02:33:46;100929.56;;;20.03;100.00
9257;BME280;4665;51.368;6.782;2023-06-26T02:36:11;100941.81;;;20.06;100.00
9257;BME280;4665;51.368;6.782;2023-06-26T02:38:37;100938.47;;;20.10;100.00
9257;BME280;4665;51.368;6.782;2023-06-26T02:41:02;100948.84;;;20.13;100.00
9257;BME280;4665;51.368;6.782;2023-06-26T02:43:30;100952.78;;;20.17;100.00
9257;BME280;4665;51.368;6.782;2023-06-26T02:45:55;100943.00;;;20.16;100.00
9257;BME280;4665;51.368;6.782;2023-06-26T02:48:21;100950.91;;;20.18;100.00
9257;BME280;4665;51.368;6.782;2023-06-26T02:50:46;100942.63;;;20.13;100.00
9257;BME280;4665;51.368;6.782;2023-06-26T02:53:12;100960.28;;;20.15;100.00
9257;BME280;4665;51.368;6.782;2023-06-26T02:55:38;100956.75;;;20.15;100.00
9257;BME280;4665;51.368;6.782;2023-06-26T02:58:03;100963.19;;;20.14;100.00
9257;BME280;4665;51.368;6.782;2023-06-26T03:00:29;100967.97;;;20.12;100.00
9257;BME280;4665;51.368;6.782;2023-06-26T03:02:55;100977.97;;;20.11;100.00
9257;BME280;4665;51.368;6.782;2023-06-26T03:05:20;100981.28;;;20.13;100.00
9257;BME280;4665;51.368;6.782;2023-06-26T03:07:46;100985.06;;;20.12;100.00
9257;BME280;4665;51.368;6.782;2023-06-26T03:10:12;100986.69;;;20.20;100.00
9257;BME280;4665;51.368;6.782;2023-06-26T03:12:37;100982.09;;;20.27;100.00
9257;BME280;4665;51.368;6.782;2023-06-26T03:15:03;100986.66;;;20.33;100.00
9257;BME280;4665;51.368;6.782;2023-06-26T03:17:28;100981.81;;;20.42;100.00
9257;BME280;4665;51.368;6.782;2023-06-26T03:19:54;100991.97;;;20.47;100.00
9257;BME280;4665;51.368;6.782;2023-06-26T03:22:19;100987.59;;;20.52;100.00
9257;BME280;4665;51.368;6.782;2023-06-26T03:24:45;100987.41;;;20.54;100.00
9257;BME280;4665;51.368;6.782;2023-06-26T03:27:13;100992.81;;;20.54;100.00
9257;BME280;4665;51.368;6.782;2023-06-26T03:29:38;101001.13;;;20.52;100.00
9257;BME280;4665;51.368;6.782;2023-06-26T03:32:04;100998.22;;;20.54;100.00
9257;BME280;4665;51.368;6.782;2023-06-26T03:34:29;101001.97;;;20.53;100.00
9257;BME280;4665;51.368;6.782;2023-06-26T03:36:55;101001.13;;;20.52;100.00
9257;BME280;4665;51.368;6.782;2023-06-26T03:39:20;101010.28;;;20.51;100.00
9257;BME280;4665;51.368;6.782;2023-06-26T03:41:46;100998.00;;;20.49;100.00
9257;BME280;4665;51.368;6.782;2023-06-26T03:44:11;101004.03;;;20.51;100.00
9257;BME280;4665;51.368;6.782;2023-06-26T03:46:37;101000.72;;;20.49;100.00
9257;BME280;4665;51.368;6.782;2023-06-26T03:49:02;101003.03;;;20.45;100.00
9257;BME280;4665;51.368;6.782;2023-06-26T03:51:28;101008.66;;;20.44;100.00
9257;BME280;4665;51.368;6.782;2023-06-26T03:53:54;101012.00;;;20.39;100.00
9257;BME280;4665;51.368;6.782;2023-06-26T03:56:25;101021.38;;;20.36;100.00
9257;BME280;4665;51.368;6.782;2023-06-26T03:58:51;101018.25;;;20.33;100.00
9257;BME280;4665;51.368;6.782;2023-06-26T04:01:16;101022.03;;;20.32;100.00
9257;BME280;4665;51.368;6.782;2023-06-26T04:03:42;101035.09;;;20.35;100.00
9257;BME280;4665;51.368;6.782;2023-06-26T04:06:07;101028.66;;;20.36;100.00
9257;BME280;4665;51.368;6.782;2023-06-26T04:08:33;101025.16;;;20.35;100.00
9257;BME280;4665;51.368;6.782;2023-06-26T04:10:58;101032.81;;;20.38;100.00
9257;BME280;4665;51.368;6.782;2023-06-26T04:13:24;101030.13;;;20.38;100.00
9257;BME280;4665;51.368;6.782;2023-06-26T04:15:49;101031.75;;;20.39;100.00
9257;BME280;4665;51.368;6.782;2023-06-26T04:18:15;101036.16;;;20.34;100.00
9257;BME280;4665;51.368;6.782;2023-06-26T04:21:03;101044.91;;;20.36;100.00
9257;BME280;4665;51.368;6.782;2023-06-26T04:23:27;101041.13;;;20.37;100.00
9257;BME280;4665;51.368;6.782;2023-06-26T04:25:52;101049.06;;;20.38;100.00
9257;BME280;4665;51.368;6.782;2023-06-26T04:28:20;101043.84;;;20.37;100.00
9257;BME280;4665;51.368;6.782;2023-06-26T04:30:45;101048.63;;;20.42;100.00
9257;BME280;4665;51.368;6.782;2023-06-26T04:33:11;101060.25;;;20.42;100.00
9257;BME280;4665;51.368;6.782;2023-06-26T04:35:37;101058.19;;;20.44;100.00
9257;BME280;4665;51.368;6.782;2023-06-26T04:38:02;101059.84;;;20.45;100.00
9257;BME280;4665;51.368;6.782;2023-06-26T04:40:28;101052.78;;;20.44;100.00
9257;BME280;4665;51.368;6.782;2023-06-26T04:42:53;101059.41;;;20.48;100.00
9257;BME280;4665;51.368;6.782;2023-06-26T04:45:19;101048.22;;;20.45;100.00
9257;BME280;4665;51.368;6.782;2023-06-26T04:47:44;101061.94;;;20.50;100.00
9257;BME280;4665;51.368;6.782;2023-06-26T04:50:09;101057.78;;;20.47;100.00
9257;BME280;4665;51.368;6.782;2023-06-26T04:52:35;101054.44;;;20.45;100.00
9257;BME280;4665;51.368;6.782;2023-06-26T04:55:00;101056.50;;;20.50;100.00
9257;BME280;4665;51.368;6.782;2023-06-26T04:57:26;101057.34;;;20.50;100.00
9257;BME280;4665;51.368;6.782;2023-06-26T04:59:51;101058.56;;;20.54;100.00
9257;BME280;4665;51.368;6.782;2023-06-26T05:02:17;101062.75;;;20.57;100.00
9257;BME280;4665;51.368;6.782;2023-06-26T05:04:42;101066.28;;;20.57;100.00
9257;BME280;4665;51.368;6.782;2023-06-26T05:07:07;101071.91;;;20.56;100.00
9257;BME280;4665;51.368;6.782;2023-06-26T05:09:33;101077.94;;;20.58;100.00
9257;BME280;4665;51.368;6.782;2023-06-26T05:11:59;101072.31;;;20.59;100.00
9257;BME280;4665;51.368;6.782;2023-06-26T05:14:24;101078.19;;;20.56;100.00
9257;BME280;4665;51.368;6.782;2023-06-26T05:16:49;101072.75;;;20.56;100.00
9257;BME280;4665;51.368;6.782;2023-06-26T05:19:15;101080.88;;;20.56;100.00
9257;BME280;4665;51.368;6.782;2023-06-26T05:21:41;101076.47;;;20.55;100.00
9257;BME280;4665;51.368;6.782;2023-06-26T05:24:08;101089.38;;;20.53;100.00
9257;BME280;4665;51.368;6.782;2023-06-26T05:26:34;101086.91;;;20.52;100.00
9257;BME280;4665;51.368;6.782;2023-06-26T05:29:00;101090.63;;;20.51;100.00
9257;BME280;4665;51.368;6.782;2023-06-26T05:31:25;101093.75;;;20.54;100.00
9257;BME280;4665;51.368;6.782;2023-06-26T05:33:52;101104.38;;;20.56;100.00
9257;BME280;4665;51.368;6.782;2023-06-26T05:36:21;101113.53;;;20.62;100.00
9257;BME280;4665;51.368;6.782;2023-06-26T05:38:49;101115.19;;;20.63;100.00
9257;BME280;4665;51.368;6.782;2023-06-26T05:41:15;101101.03;;;20.60;100.00
9257;BME280;4665;51.368;6.782;2023-06-26T05:43:41;101108.56;;;20.58;100.00
9257;BME280;4665;51.368;6.782;2023-06-26T05:46:06;101110.22;;;20.59;100.00
9257;BME280;4665;51.368;6.782;2023-06-26T05:48:32;101118.72;;;20.63;100.00
9257;BME280;4665;51.368;6.782;2023-06-26T05:50:57;101103.53;;;20.55;100.00
9257;BME280;4665;51.368;6.782;2023-06-26T05:53:23;101112.69;;;20.54;100.00
9257;BME280;4665;51.368;6.782;2023-06-26T05:55:49;101114.78;;;20.46;100.00
9257;BME280;4665;51.368;6.782;2023-06-26T05:58:16;101111.91;;;20.34;100.00
9257;BME280;4665;51.368;6.782;2023-06-26T06:00:43;101124.81;;;20.32;100.00
9257;BME280;4665;51.368;6.782;2023-06-26T06:03:09;101121.06;;;20.33;100.00
9257;BME280;4665;51.368;6.782;2023-06-26T06:05:35;101125.19;;;20.42;100.00
9257;BME280;4665;51.368;6.782;2023-06-26T06:08:01;101127.25;;;20.53;100.00
9257;BME280;4665;51.368;6.782;2023-06-26T06:10:26;101121.03;;;20.53;100.00
9257;BME280;4665;51.368;6.782;2023-06-26T06:12:52;101127.88;;;20.55;100.00
9257;BME280;4665;51.368;6.782;2023-06-26T06:18:32;101133.53;;;20.41;100.00
9257;BME280;4665;51.368;6.782;2023-06-26T06:21:19;101148.72;;;20.35;100.00
9257;BME280;4665;51.368;6.782;2023-06-26T06:23:44;101137.09;;;20.28;100.00
9257;BME280;4665;51.368;6.782;2023-06-26T06:26:10;101153.13;;;20.36;100.00
9257;BME280;4665;51.368;6.782;2023-06-26T06:31:45;101154.56;;;20.52;100.00
9257;BME280;4665;51.368;6.782;2023-06-26T06:37:03;101169.75;;;20.59;100.00
9257;BME280;4665;51.368;6.782;2023-06-26T06:39:31;101166.81;;;20.68;100.00
9257;BME280;4665;51.368;6.782;2023-06-26T06:41:58;101168.91;;;20.66;100.00
9257;BME280;4665;51.368;6.782;2023-06-26T06:44:26;101171.63;;;20.66;100.00
9257;BME280;4665;51.368;6.782;2023-06-26T06:46:51;101184.72;;;20.62;100.00
9257;BME280;4665;51.368;6.782;2023-06-26T06:49:52;101182.22;;;20.67;100.00
9257;BME280;4665;51.368;6.782;2023-06-26T06:52:18;101188.91;;;20.58;100.00
9257;BME280;4665;51.368;6.782;2023-06-26T06:54:56;101190.56;;;20.59;100.00
9257;BME280;4665;51.368;6.782;2023-06-26T06:57:24;101189.75;;;20.58;100.00
9257;BME280;4665;51.368;6.782;2023-06-26T06:59:52;101202.03;;;20.61;100.00
9257;BME280;4665;51.368;6.782;2023-06-26T07:02:18;101204.94;;;20.66;100.00
9257;BME280;4665;51.368;6.782;2023-06-26T07:05:07;101204.75;;;20.61;100.00
9257;BME280;4665;51.368;6.782;2023-06-26T07:07:35;101211.78;;;20.55;100.00
9257;BME280;4665;51.368;6.782;2023-06-26T07:10:05;101204.28;;;20.51;100.00
9257;BME280;4665;51.368;6.782;2023-06-26T07:12:31;101214.47;;;20.49;100.00
9257;BME280;4665;51.368;6.782;2023-06-26T07:15:22;101212.63;;;20.43;100.00
9257;BME280;4665;51.368;6.782;2023-06-26T07:17:48;101213.47;;;20.43;100.00
9257;BME280;4665;51.368;6.782;2023-06-26T07:20:40;101208.06;;;20.43;100.00
9257;BME280;4665;51.368;6.782;2023-06-26T07:23:29;101205.34;;;20.43;100.00
9257;BME280;4665;51.368;6.782;2023-06-26T07:25:55;101200.97;;;20.42;100.00
9257;BME280;4665;51.368;6.782;2023-06-26T07:31:24;101198.47;;;20.67;100.00
9257;BME280;4665;51.368;6.782;2023-06-26T07:33:50;101191.56;;;20.78;100.00
9257;BME280;4665;51.368;6.782;2023-06-26T07:36:15;101195.25;;;20.97;100.00
9257;BME280;4665;51.368;6.782;2023-06-26T07:38:40;101203.34;;;21.10;100.00
9257;BME280;4665;51.368;6.782;2023-06-26T07:41:10;101195.59;;;21.20;100.00
9257;BME280;4665;51.368;6.782;2023-06-26T07:43:36;101194.94;;;21.25;100.00
9257;BME280;4665;51.368;6.782;2023-06-26T07:46:06;101203.69;;;21.27;100.00
9257;BME280;4665;51.368;6.782;2023-06-26T07:48:32;101201.19;;;21.26;100.00
9257;BME280;4665;51.368;6.782;2023-06-26T07:51:09;101214.09;;;21.30;100.00
9257;BME280;4665;51.368;6.782;2023-06-26T07:53:35;101219.31;;;21.25;100.00
9257;BME280;4665;51.368;6.782;2023-06-26T07:56:00;101207.88;;;21.23;100.00
9257;BME280;4665;51.368;6.782;2023-06-26T07:58:26;101220.38;;;21.24;100.00
9257;BME280;4665;51.368;6.782;2023-06-26T08:00:51;101216.00;;;21.23;100.00
9257;BME280;4665;51.368;6.782;2023-06-26T08:03:16;101227.06;;;21.21;100.00
9257;BME280;4665;51.368;6.782;2023-06-26T08:05:42;101237.50;;;21.18;100.00
9257;BME280;4665;51.368;6.782;2023-06-26T08:08:07;101241.88;;;21.19;100.00
9257;BME280;4665;51.368;6.782;2023-06-26T08:10:33;101224.94;;;21.30;100.00
9257;BME280;4665;51.368;6.782;2023-06-26T08:12:59;101230.75;;;21.34;100.00
9257;BME280;4665;51.368;6.782;2023-06-26T08:15:24;101233.69;;;21.32;100.00
9257;BME280;4665;51.368;6.782;2023-06-26T08:17:50;101247.41;;;21.37;100.00
9257;BME280;4665;51.368;6.782;2023-06-26T08:20:15;101250.56;;;21.34;100.00
9257;BME280;4665;51.368;6.782;2023-06-26T08:22:41;101254.16;;;21.21;100.00
9257;BME280;4665;51.368;6.782;2023-06-26T08:25:11;101258.28;;;21.31;100.00
9257;BME280;4665;51.368;6.782;2023-06-26T08:27:36;101254.97;;;21.22;100.00
9257;BME280;4665;51.368;6.782;2023-06-26T08:30:02;101268.72;;;21.20;100.00
9257;BME280;4665;51.368;6.782;2023-06-26T08:32:28;101267.50;;;21.16;100.00
9257;BME280;4665;51.368;6.782;2023-06-26T08:34:55;101266.25;;;21.19;100.00
9257;BME280;4665;51.368;6.782;2023-06-26T08:37:21;101264.56;;;21.18;100.00
9257;BME280;4665;51.368;6.782;2023-06-26T08:39:47;101269.16;;;21.24;100.00
9257;BME280;4665;51.368;6.782;2023-06-26T08:42:12;101267.44;;;21.30;100.00
9257;BME280;4665;51.368;6.782;2023-06-26T08:44:38;101262.22;;;21.41;100.00
9257;BME280;4665;51.368;6.782;2023-06-26T08:47:04;101271.97;;;21.56;100.00
9257;BME280;4665;51.368;6.782;2023-06-26T08:49:56;101284.03;;;21.60;100.00
9257;BME280;4665;51.368;6.782;2023-06-26T08:52:30;101279.84;;;21.64;100.00
9257;BME280;4665;51.368;6.782;2023-06-26T08:54:58;101281.78;;;21.57;100.00
9257;BME280;4665;51.368;6.782;2023-06-26T08:57:25;101294.72;;;21.48;100.00
9257;BME280;4665;51.368;6.782;2023-06-26T08:59:52;101284.50;;;21.50;100.00
9257;BME280;4665;51.368;6.782;2023-06-26T09:02:18;101289.50;;;21.53;100.00
9257;BME280;4665;51.368;6.782;2023-06-26T09:04:43;101291.56;;;21.51;100.00
9257;BME280;4665;51.368;6.782;2023-06-26T09:07:09;101288.66;;;21.53;100.00
9257;BME280;4665;51.368;6.782;2023-06-26T09:09:35;101285.50;;;21.56;100.00
9257;BME280;4665;51.368;6.782;2023-06-26T09:12:02;101280.09;;;21.56;100.00
9257;BME280;4665;51.368;6.782;2023-06-26T09:14:29;101276.16;;;21.58;100.00
9257;BME280;4665;51.368;6.782;2023-06-26T09:16:55;101270.28;;;21.61;100.00
9257;BME280;4665;51.368;6.782;2023-06-26T09:19:20;101278.63;;;21.60;100.00
9257;BME280;4665;51.368;6.782;2023-06-26T09:21:49;101272.34;;;21.66;100.00
9257;BME280;4665;51.368;6.782;2023-06-26T09:24:15;101278.56;;;21.73;100.00
9257;BME280;4665;51.368;6.782;2023-06-26T09:26:41;101275.25;;;21.64;100.00
9257;BME280;4665;51.368;6.782;2023-06-26T09:29:08;101279.84;;;21.64;100.00
9257;BME280;4665;51.368;6.782;2023-06-26T09:31:37;101290.25;;;21.67;100.00
9257;BME280;4665;51.368;6.782;2023-06-26T09:34:02;101287.94;;;21.77;100.00
9257;BME280;4665;51.368;6.782;2023-06-26T09:36:29;101293.13;;;21.79;100.00
9257;BME280;4665;51.368;6.782;2023-06-26T09:39:03;101289.75;;;21.83;100.00
9257;BME280;4665;51.368;6.782;2023-06-26T09:41:30;101294.28;;;21.96;100.00
9257;BME280;4665;51.368;6.782;2023-06-26T09:43:58;101290.09;;;22.00;100.00
9257;BME280;4665;51.368;6.782;2023-06-26T09:46:30;101286.31;;;22.01;100.00
9257;BME280;4665;51.368;6.782;2023-06-26T09:51:25;101275.66;;;22.06;100.00
9257;BME280;4665;51.368;6.782;2023-06-26T09:53:50;101276.88;;;22.11;100.00
9257;BME280;4665;51.368;6.782;2023-06-26T09:56:17;101283.75;;;22.13;100.00
9257;BME280;4665;51.368;6.782;2023-06-26T09:58:43;101295.38;;;22.20;100.00
9257;BME280;4665;51.368;6.782;2023-06-26T10:01:09;101303.31;;;22.29;100.00
9257;BME280;4665;51.368;6.782;2023-06-26T10:03:35;101298.50;;;22.31;100.00
9257;BME280;4665;51.368;6.782;2023-06-26T10:06:02;101298.19;;;22.39;100.00
9257;BME280;4665;51.368;6.782;2023-06-26T10:08:28;101304.91;;;22.36;100.00
9257;BME280;4665;51.368;6.782;2023-06-26T10:10:56;101300.50;;;22.42;100.00
9257;BME280;4665;51.368;6.782;2023-06-26T10:13:27;101297.38;;;22.38;100.00
9257;BME280;4665;51.368;6.782;2023-06-26T10:15:57;101295.31;;;22.34;100.00
9257;BME280;4665;51.368;6.782;2023-06-26T10:18:24;101288.31;;;22.19;100.00
9257;BME280;4665;51.368;6.782;2023-06-26T10:20:53;101300.63;;;22.15;100.00
9257;BME280;4665;51.368;6.782;2023-06-26T10:23:41;101305.06;;;22.10;100.00
9257;BME280;4665;51.368;6.782;2023-06-26T10:26:09;101307.38;;;22.06;100.00
9257;BME280;4665;51.368;6.782;2023-06-26T10:28:38;101311.81;;;22.00;100.00
9257;BME280;4665;51.368;6.782;2023-06-26T10:31:05;101319.69;;;22.02;100.00
9257;BME280;4665;51.368;6.782;2023-06-26T10:33:33;101328.28;;;21.99;100.00
9257;BME280;4665;51.368;6.782;2023-06-26T10:36:14;101317.19;;;22.07;100.00
9257;BME280;4665;51.368;6.782;2023-06-26T10:38:54;101318.78;;;22.21;100.00
9257;BME280;4665;51.368;6.782;2023-06-26T10:41:24;101308.44;;;22.37;100.00
9257;BME280;4665;51.368;6.782;2023-06-26T10:44:07;101306.47;;;22.51;100.00
9257;BME280;4665;51.368;6.782;2023-06-26T10:46:56;101325.16;;;22.65;100.00
9257;BME280;4665;51.368;6.782;2023-06-26T10:49:30;101321.00;;;22.63;100.00
9257;BME280;4665;51.368;6.782;2023-06-26T10:51:55;101329.41;;;22.55;100.00
9257;BME280;4665;51.368;6.782;2023-06-26T10:54:28;101323.94;;;22.61;100.00
9257;BME280;4665;51.368;6.782;2023-06-26T10:56:55;101330.06;;;22.75;100.00
9257;BME280;4665;51.368;6.782;2023-06-26T10:59:27;101338.81;;;22.52;100.00
9257;BME280;4665;51.368;6.782;2023-06-26T11:01:57;101343.94;;;22.42;100.00
9257;BME280;4665;51.368;6.782;2023-06-26T11:04:46;101344.00;;;22.29;100.00
9257;BME280;4665;51.368;6.782;2023-06-26T11:07:25;101345.03;;;22.27;100.00
9257;BME280;4665;51.368;6.782;2023-06-26T11:12:58;101349.53;;;22.47;100.00
9257;BME280;4665;51.368;6.782;2023-06-26T11:15:26;101357.84;;;22.52;100.00
9257;BME280;4665;51.368;6.782;2023-06-26T11:17:52;101351.16;;;22.48;100.00
9257;BME280;4665;51.368;6.782;2023-06-26T11:20:18;101364.75;;;22.48;100.00
9257;BME280;4665;51.368;6.782;2023-06-26T11:22:45;101354.16;;;22.40;100.00
9257;BME280;4665;51.368;6.782;2023-06-26T11:25:11;101339.97;;;22.38;100.00
9257;BME280;4665;51.368;6.782;2023-06-26T11:30:02;101363.41;;;22.25;100.00
9257;BME280;4665;51.368;6.782;2023-06-26T11:32:27;101378.03;;;22.18;100.00
9257;BME280;4665;51.368;6.782;2023-06-26T11:34:54;101360.50;;;22.20;100.00
9257;BME280;4665;51.368;6.782;2023-06-26T11:37:20;101366.75;;;22.27;91.56
9257;BME280;4665;51.368;6.782;2023-06-26T11:39:46;101364.03;;;22.27;73.67
9257;BME280;4665;51.368;6.782;2023-06-26T11:42:12;101368.78;;;22.39;68.21
9257;BME280;4665;51.368;6.782;2023-06-26T11:44:41;101369.44;;;22.66;66.48
9257;BME280;4665;51.368;6.782;2023-06-26T11:47:20;101365.94;;;22.59;67.34
9257;BME280;4665;51.368;6.782;2023-06-26T11:49:47;101372.38;;;22.58;73.31
9257;BME280;4665;51.368;6.782;2023-06-26T11:52:15;101378.22;;;22.61;75.19
9257;BME280;4665;51.368;6.782;2023-06-26T11:54:41;101376.75;;;22.65;79.93
9257;BME280;4665;51.368;6.782;2023-06-26T11:57:07;101391.84;;;22.55;74.35
9257;BME280;4665;51.368;6.782;2023-06-26T11:59:34;101389.16;;;22.48;79.03
9257;BME280;4665;51.368;6.782;2023-06-26T12:02:04;101393.25;;;22.64;76.42
9257;BME280;4665;51.368;6.782;2023-06-26T12:04:30;101395.50;;;22.67;86.38
9257;BME280;4665;51.368;6.782;2023-06-26T12:06:56;101386.09;;;22.69;70.20
9257;BME280;4665;51.368;6.782;2023-06-26T12:09:25;101395.25;;;22.75;63.37
9257;BME280;4665;51.368;6.782;2023-06-26T12:11:53;101400.94;;;22.67;62.03
9257;BME280;4665;51.368;6.782;2023-06-26T12:14:20;101397.81;;;22.70;61.13
9257;BME280;4665;51.368;6.782;2023-06-26T12:16:53;101403.19;;;22.77;58.73
9257;BME280;4665;51.368;6.782;2023-06-26T12:19:24;101399.19;;;22.79;60.16
9257;BME280;4665;51.368;6.782;2023-06-26T12:21:50;101401.69;;;22.81;59.76
9257;BME280;4665;51.368;6.782;2023-06-26T12:24:23;101418.13;;;22.61;59.44
9257;BME280;4665;51.368;6.782;2023-06-26T12:26:54;101422.44;;;22.68;57.92
9257;BME280;4665;51.368;6.782;2023-06-26T12:29:29;101417.56;;;22.52;58.65
9257;BME280;4665;51.368;6.782;2023-06-26T12:31:57;101429.06;;;22.47;58.13
9257;BME280;4665;51.368;6.782;2023-06-26T12:34:31;101435.75;;;22.45;59.03
9257;BME280;4665;51.368;6.782;2023-06-26T12:37:36;101446.78;;;22.50;57.61
9257;BME280;4665;51.368;6.782;2023-06-26T12:40:01;101449.69;;;22.55;59.12
9257;BME280;4665;51.368;6.782;2023-06-26T12:42:34;101432.50;;;22.68;56.27
9257;BME280;4665;51.368;6.782;2023-06-26T12:48:12;101422.19;;;22.77;57.42
9257;BME280;4665;51.368;6.782;2023-06-26T12:50:47;101432.91;;;22.65;56.70
9257;BME280;4665;51.368;6.782;2023-06-26T12:53:13;101425.22;;;22.62;54.36
9257;BME280;4665;51.368;6.782;2023-06-26T12:55:44;101434.59;;;22.66;55.24
9257;BME280;4665;51.368;6.782;2023-06-26T12:58:09;101428.75;;;22.62;52.72
9257;BME280;4665;51.368;6.782;2023-06-26T13:03:28;101425.09;;;22.82;54.93
9257;BME280;4665;51.368;6.782;2023-06-26T13:06:11;101418.69;;;22.95;55.39
9257;BME280;4665;51.368;6.782;2023-06-26T13:08:38;101442.47;;;23.06;53.38
9257;BME280;4665;51.368;6.782;2023-06-26T13:11:03;101438.13;;;22.98;51.43
9257;BME280;4665;51.368;6.782;2023-06-26T13:13:44;101439.16;;;22.72;51.70
9257;BME280;4665;51.368;6.782;2023-06-26T13:16:09;101451.25;;;22.69;56.59
9257;BME280;4665;51.368;6.782;2023-06-26T13:18:35;101444.13;;;22.75;55.92
9257;BME280;4665;51.368;6.782;2023-06-26T13:21:00;101436.19;;;22.74;53.52
9257;BME280;4665;51.368;6.782;2023-06-26T13:23:26;101441.78;;;22.79;53.76
9257;BME280;4665;51.368;6.782;2023-06-26T13:25:59;101450.31;;;22.89;56.45
9257;BME280;4665;51.368;6.782;2023-06-26T13:28:25;101462.41;;;22.93;55.45
9257;BME280;4665;51.368;6.782;2023-06-26T13:30:50;101460.50;;;23.00;54.89
9257;BME280;4665;51.368;6.782;2023-06-26T13:33:16;101444.34;;;23.05;52.33
9257;BME280;4665;51.368;6.782;2023-06-26T13:35:41;101450.56;;;23.13;54.52
9257;BME280;4665;51.368;6.782;2023-06-26T13:38:07;101450.13;;;23.16;52.37